createdAt,value
2022-10-06T00:01:39.108Z,102543.69
2022-10-06T00:04:07.177Z,102556.69
2022-10-06T00:06:36.222Z,102557.53
2022-10-06T00:09:04.642Z,102553.16
2022-10-06T00:11:36.432Z,102561.00
2022-10-06T00:14:06.231Z,102562.72
2022-10-06T00:16:34.254Z,102563.44
2022-10-06T00:19:02.635Z,102574.69
2022-10-06T00:21:30.650Z,102574.44
2022-10-06T00:23:58.689Z,102578.81
2022-10-06T00:26:27.198Z,102574.16
2022-10-06T00:28:56.594Z,102581.78
2022-10-06T00:31:24.690Z,102575.00
2022-10-06T00:33:52.875Z,102571.63
2022-10-06T00:36:21.394Z,102556.94
2022-10-06T00:38:50.967Z,102582.63
2022-10-06T00:41:19.171Z,102583.50
2022-10-06T00:43:49.559Z,102592.50
2022-10-06T00:46:22.233Z,102581.19
2022-10-06T00:48:54.052Z,102589.50
2022-10-06T00:51:25.513Z,102597.53
2022-10-06T00:53:53.571Z,102598.91
2022-10-06T00:56:21.601Z,102600.59
2022-10-06T00:58:54.699Z,102607.09
2022-10-06T01:01:24.312Z,102600.59
2022-10-06T01:03:58.530Z,102600.88
2022-10-06T01:06:26.701Z,102609.88
2022-10-06T01:08:55.847Z,102623.16
2022-10-06T01:11:23.846Z,102621.75
2022-10-06T01:13:51.886Z,102623.56
2022-10-06T01:16:22.638Z,102623.44
2022-10-06T01:18:52.074Z,102632.03
2022-10-06T01:21:24.559Z,102615.53
2022-10-06T01:23:54.031Z,102629.09
2022-10-06T01:26:25.188Z,102615.59
2022-10-06T01:28:55.048Z,102614.75
2022-10-06T01:31:23.074Z,102605.09
2022-10-06T01:34:02.740Z,102612.16
2022-10-06T01:36:31.100Z,102613.00
2022-10-06T01:39:00.493Z,102626.50
2022-10-06T01:41:30.472Z,102626.78
2022-10-06T01:43:59.260Z,102627.75
2022-10-06T01:46:30.215Z,102620.47
2022-10-06T01:48:58.407Z,102622.72
2022-10-06T01:51:26.626Z,102623.03
2022-10-06T01:53:55.781Z,102622.34
2022-10-06T01:56:25.297Z,102626.47
2022-10-06T01:58:54.380Z,102622.00
2022-10-06T02:01:22.516Z,102622.41
2022-10-06T02:03:50.533Z,102623.88
2022-10-06T02:06:18.670Z,102624.66
2022-10-06T02:08:47.321Z,102624.59
2022-10-06T02:11:15.390Z,102604.69
2022-10-06T02:13:45.675Z,102639.06
2022-10-06T02:16:14.169Z,102632.44
2022-10-06T02:18:44.087Z,102635.38
2022-10-06T02:21:17.721Z,102632.25
2022-10-06T02:23:45.810Z,102626.91
2022-10-06T02:26:16.402Z,102646.63
2022-10-06T02:28:46.860Z,102636.72
2022-10-06T02:31:19.076Z,102630.81
2022-10-06T02:33:49.779Z,102626.31
2022-10-06T02:36:19.855Z,102640.69
2022-10-06T02:38:49.445Z,102635.03
2022-10-06T02:41:17.929Z,102639.88
2022-10-06T02:43:48.229Z,102648.31
2022-10-06T02:46:20.252Z,102644.50
2022-10-06T02:48:51.902Z,102661.88
2022-10-06T02:51:21.112Z,102641.75
2022-10-06T02:53:49.855Z,102645.28
2022-10-06T02:56:20.622Z,102645.53
2022-10-06T02:58:50.685Z,102629.22
2022-10-06T03:01:29.326Z,102641.34
2022-10-06T03:04:05.488Z,102636.28
2022-10-06T03:06:33.539Z,102650.09
2022-10-06T03:09:28.671Z,102653.63
2022-10-06T03:11:57.529Z,102654.19
2022-10-06T03:14:36.342Z,102652.03
2022-10-06T03:17:05.345Z,102652.75
2022-10-06T03:19:35.446Z,102663.03
2022-10-06T03:22:03.569Z,102661.56
2022-10-06T03:24:41.867Z,102649.56
2022-10-06T03:27:09.973Z,102664.16
2022-10-06T03:29:39.354Z,102674.66
2022-10-06T03:32:07.538Z,102657.91
2022-10-06T03:34:37.761Z,102668.75
2022-10-06T03:37:11.781Z,102670.28
2022-10-06T03:39:40.174Z,102672.69
2022-10-06T03:42:09.196Z,102681.81
2022-10-06T03:44:37.234Z,102683.13
2022-10-06T03:47:14.707Z,102680.47
2022-10-06T03:49:45.601Z,102677.06
2022-10-06T03:52:15.484Z,102678.31
2022-10-06T03:54:43.555Z,102683.53
2022-10-06T03:57:12.063Z,102691.00
2022-10-06T03:59:42.809Z,102685.66
2022-10-06T04:02:14.394Z,102689.91
2022-10-06T04:04:42.754Z,102689.91
2022-10-06T04:07:12.351Z,102696.97
2022-10-06T04:09:41.124Z,102690.16
2022-10-06T04:12:10.993Z,102688.22
2022-10-06T04:14:40.698Z,102687.66
2022-10-06T04:17:09.577Z,102697.22
2022-10-06T04:19:41.973Z,102701.72
2022-10-06T04:22:10.050Z,102707.69
2022-10-06T04:24:38.680Z,102702.28
2022-10-06T04:27:24.577Z,102705.72
2022-10-06T04:30:16.927Z,102699.47
2022-10-06T04:32:45.719Z,102687.81
2022-10-06T04:35:16.171Z,102709.31
2022-10-06T04:37:47.063Z,102712.31
2022-10-06T04:40:16.766Z,102695.84
2022-10-06T04:42:45.577Z,102709.63
2022-10-06T04:45:16.224Z,102701.72
2022-10-06T04:47:45.255Z,102720.53
2022-10-06T04:50:17.395Z,102713.59
2022-10-06T04:53:06.159Z,102706.69
2022-10-06T04:55:36.814Z,102724.63
2022-10-06T04:58:05.459Z,102728.00
2022-10-06T05:00:33.648Z,102719.97
2022-10-06T05:03:02.014Z,102727.03
2022-10-06T05:05:33.994Z,102727.03
2022-10-06T05:08:02.354Z,102728.91
2022-10-06T05:10:30.553Z,102728.03
2022-10-06T05:12:59.354Z,102727.75
2022-10-06T05:15:29.188Z,102730.59
2022-10-06T05:17:57.519Z,102730.59
2022-10-06T05:20:25.619Z,102728.59
2022-10-06T05:23:00.570Z,102739.31
2022-10-06T05:25:28.968Z,102746.38
2022-10-06T05:27:56.944Z,102733.97
2022-10-06T05:30:26.835Z,102744.41
2022-10-06T05:32:55.070Z,102740.34
2022-10-06T05:35:23.991Z,102743.00
2022-10-06T05:37:52.027Z,102733.13
2022-10-06T05:40:23.980Z,102748.81
2022-10-06T05:42:52.025Z,102744.16
2022-10-06T05:45:22.903Z,102737.38
2022-10-06T05:47:51.117Z,102753.19
2022-10-06T05:50:20.694Z,102751.47
2022-10-06T05:52:49.198Z,102751.31
2022-10-06T05:55:17.252Z,102767.94
2022-10-06T05:58:49.581Z,102759.91
2022-10-06T06:01:20.693Z,102759.59
2022-10-06T06:03:50.684Z,102763.00
2022-10-06T06:06:43.223Z,102779.78
2022-10-06T06:09:31.045Z,102779.38
2022-10-06T06:12:05.005Z,102777.63
2022-10-06T06:15:08.759Z,102784.06
2022-10-06T06:17:48.044Z,102797.47
2022-10-06T06:20:55.643Z,102790.09
2022-10-06T06:23:23.790Z,102796.38
2022-10-06T06:26:02.261Z,102797.34
2022-10-06T06:28:32.053Z,102802.09
2022-10-06T06:31:03.677Z,102797.88
2022-10-06T06:33:33.605Z,102801.41
2022-10-06T06:36:05.708Z,102789.72
2022-10-06T06:38:33.802Z,102797.34
2022-10-06T06:41:01.966Z,102795.53
2022-10-06T06:43:30.472Z,102806.81
2022-10-06T06:46:25.393Z,102805.72
2022-10-06T06:49:26.735Z,102773.69
2022-10-06T06:51:59.190Z,102808.72
2022-10-06T06:54:31.022Z,102809.28
2022-10-06T06:57:04.648Z,102811.91
2022-10-06T06:59:34.109Z,102815.97
2022-10-06T07:02:03.431Z,102817.34
2022-10-06T07:04:37.464Z,102823.69
2022-10-06T07:07:07.971Z,102829.63
2022-10-06T07:09:39.216Z,102821.25
2022-10-06T07:12:12.572Z,102832.19
2022-10-06T07:15:00.665Z,102837.41
2022-10-06T07:17:49.029Z,102831.78
2022-10-06T07:20:37.247Z,102824.38
2022-10-06T07:23:23.117Z,102834.69
2022-10-06T07:25:54.175Z,102833.59
2022-10-06T07:28:22.826Z,102835.63
2022-10-06T07:30:52.757Z,102834.16
2022-10-06T07:33:22.816Z,102840.53
2022-10-06T07:35:55.133Z,102836.97
2022-10-06T07:38:26.195Z,102837.22
2022-10-06T07:41:14.926Z,102853.00
2022-10-06T07:43:49.345Z,102843.50
2022-10-06T07:46:19.926Z,102856.47
2022-10-06T07:49:05.150Z,102859.28
2022-10-06T07:51:34.578Z,102861.41
2022-10-06T07:54:04.204Z,102846.91
2022-10-06T07:56:55.174Z,102857.31
2022-10-06T07:59:32.661Z,102877.22
2022-10-06T08:02:00.763Z,102859.69
2022-10-06T08:04:28.926Z,102886.47
2022-10-06T08:06:59.779Z,102866.59
2022-10-06T08:09:30.711Z,102867.75
2022-10-06T08:12:25.069Z,102869.22
2022-10-06T08:14:53.454Z,102845.16
2022-10-06T08:17:22.244Z,102871.22
2022-10-06T08:19:50.841Z,102880.00
2022-10-06T08:22:29.379Z,102855.38
2022-10-06T08:25:05.762Z,102870.38
2022-10-06T08:27:35.078Z,102873.19
2022-10-06T08:30:12.430Z,102882.91
2022-10-06T08:32:42.830Z,102888.72
2022-10-06T08:35:21.565Z,102885.66
2022-10-06T08:37:51.455Z,102888.91
2022-10-06T08:40:21.532Z,102894.16
2022-10-06T08:42:52.322Z,102891.34
2022-10-06T08:45:35.003Z,102890.00
2022-10-06T08:48:07.386Z,102888.50
2022-10-06T08:50:38.939Z,102883.56
2022-10-06T08:53:15.643Z,102885.28
2022-10-06T08:55:51.529Z,102885.97
2022-10-06T08:58:34.813Z,102874.00
2022-10-06T09:01:14.392Z,102886.63
2022-10-06T09:03:47.803Z,102879.00
2022-10-06T09:06:26.357Z,102869.13
2022-10-06T09:09:00.649Z,102892.44
2022-10-06T09:11:37.688Z,102899.06
2022-10-06T09:14:07.682Z,102880.28
2022-10-06T09:16:39.621Z,102887.94
2022-10-06T09:19:12.542Z,102904.50
2022-10-06T09:21:43.413Z,102905.88
2022-10-06T09:24:17.690Z,102902.75
2022-10-06T09:26:48.094Z,102911.09
2022-10-06T09:29:16.653Z,102903.03
2022-10-06T09:31:47.749Z,102906.69
2022-10-06T09:34:25.370Z,102905.19
2022-10-06T09:37:02.072Z,102904.66
2022-10-06T09:39:36.788Z,102906.34
2022-10-06T09:42:08.001Z,102900.97
2022-10-06T09:44:44.627Z,102912.84
2022-10-06T09:47:52.239Z,102919.06
2022-10-06T09:50:22.808Z,102912.59
2022-10-06T09:53:16.369Z,102920.75
2022-10-06T09:55:53.774Z,102940.66
2022-10-06T09:58:31.667Z,102909.94
2022-10-06T10:01:03.770Z,102901.16
2022-10-06T10:04:15.616Z,102930.34
2022-10-06T10:06:40.688Z,102934.28
2022-10-06T10:09:22.421Z,102933.34
2022-10-06T10:12:28.316Z,102931.19
2022-10-06T10:14:59.585Z,102938.56
2022-10-06T10:17:58.906Z,102907.03
2022-10-06T10:20:41.118Z,102920.31
2022-10-06T10:23:27.271Z,102922.19
2022-10-06T10:26:09.720Z,102932.19
2022-10-06T10:29:15.890Z,102931.53
2022-10-06T10:31:55.790Z,102922.25
2022-10-06T10:35:00.697Z,102917.88
2022-10-06T10:37:36.930Z,102919.22
2022-10-06T10:40:13.122Z,102921.53
2022-10-06T10:42:44.951Z,102921.38
2022-10-06T10:45:18.904Z,102919.47
2022-10-06T10:47:51.017Z,102914.41
2022-10-06T10:50:26.411Z,102926.91
2022-10-06T10:52:57.407Z,102923.97
2022-10-06T10:55:29.326Z,102918.78
2022-10-06T10:58:00.562Z,102930.09
2022-10-06T11:00:33.037Z,102924.53
2022-10-06T11:03:02.461Z,102942.31
2022-10-06T11:05:40.184Z,102939.31
2022-10-06T11:08:12.119Z,102926.47
2022-10-06T11:10:46.592Z,102932.41
2022-10-06T11:13:18.911Z,102926.94
2022-10-06T11:15:54.632Z,102924.56
2022-10-06T11:18:40.880Z,102922.34
2022-10-06T11:21:14.967Z,102921.50
2022-10-06T11:23:53.535Z,102916.03
2022-10-06T11:26:35.827Z,102925.16
2022-10-06T11:29:07.900Z,102920.25
2022-10-06T11:31:40.659Z,102916.50
2022-10-06T11:34:17.660Z,102914.09
2022-10-06T11:36:48.042Z,102919.44
2022-10-06T11:39:28.944Z,102921.25
2022-10-06T11:41:59.461Z,102899.19
2022-10-06T11:44:32.438Z,102903.38
2022-10-06T11:47:09.381Z,102898.00
2022-10-06T11:49:54.101Z,102909.44
2022-10-06T11:52:55.400Z,102903.19
2022-10-06T11:55:27.412Z,102900.19
2022-10-06T11:58:41.411Z,102896.38
2022-10-06T12:01:10.290Z,102888.94
2022-10-06T12:07:06.572Z,102898.09
2022-10-06T12:09:52.702Z,102899.47
2022-10-06T12:13:06.898Z,102891.66
2022-10-06T12:21:37.258Z,102899.84
2022-10-06T12:24:18.899Z,102895.28
2022-10-06T12:26:54.106Z,102897.81
2022-10-06T12:29:42.957Z,102901.47
2022-10-06T12:32:34.855Z,102885.25
2022-10-06T12:35:07.513Z,102893.53
2022-10-06T12:37:54.479Z,102892.06
2022-10-06T12:41:02.358Z,102897.47
2022-10-06T12:43:38.202Z,102889.75
2022-10-06T12:46:16.547Z,102897.13
2022-10-06T12:48:53.637Z,102881.91
2022-10-06T12:51:30.487Z,102858.25
2022-10-06T12:54:04.447Z,102884.22
2022-10-06T12:56:39.112Z,102872.97
2022-10-06T12:59:21.553Z,102868.81
2022-10-06T13:01:51.355Z,102866.53
2022-10-06T13:04:37.810Z,102868.97
2022-10-06T13:07:11.225Z,102874.47
2022-10-06T13:09:41.853Z,102856.78
2022-10-06T13:12:30.937Z,102870.84
2022-10-06T13:15:20.485Z,102858.78
2022-10-06T13:18:07.259Z,102857.53
2022-10-06T13:20:37.907Z,102845.19
2022-10-06T13:23:25.984Z,102852.63
2022-10-06T13:25:58.446Z,102841.59
2022-10-06T13:32:22.876Z,102834.31
2022-10-06T13:34:51.070Z,102849.16
2022-10-06T13:37:27.931Z,102836.72
2022-10-06T13:39:56.865Z,102813.38
2022-10-06T13:42:25.615Z,102830.97
2022-10-06T13:45:00.412Z,102845.28
2022-10-06T13:47:48.340Z,102830.22
2022-10-06T13:50:21.197Z,102844.94
2022-10-06T13:52:50.837Z,102818.94
2022-10-06T13:55:33.905Z,102818.78
2022-10-06T13:58:11.110Z,102837.75
2022-10-06T14:01:04.772Z,102806.47
2022-10-06T14:06:07.959Z,102815.88
2022-10-06T14:08:36.718Z,102820.75
2022-10-06T14:11:06.250Z,102823.09
2022-10-06T14:13:46.917Z,102821.75
2022-10-06T14:16:20.819Z,102805.78
2022-10-06T14:21:34.029Z,102824.00
2022-10-06T14:24:06.122Z,102815.69
2022-10-06T14:26:39.923Z,102814.19
2022-10-06T14:29:08.724Z,102813.38
2022-10-06T14:31:36.932Z,102813.75
2022-10-06T14:34:14.508Z,102810.69
2022-10-06T14:36:47.389Z,102808.97
2022-10-06T14:39:19.535Z,102792.09
2022-10-06T14:41:47.807Z,102785.56
2022-10-06T14:44:21.589Z,102807.78
2022-10-06T14:46:50.178Z,102788.31
2022-10-06T14:49:27.715Z,102787.66
2022-10-06T14:51:56.949Z,102794.91
2022-10-06T14:54:26.949Z,102798.56
2022-10-06T14:56:56.292Z,102796.56
2022-10-06T14:59:28.645Z,102770.41
2022-10-06T15:01:59.756Z,102781.03
2022-10-06T15:04:29.389Z,102787.28
2022-10-06T15:07:15.108Z,102785.94
2022-10-06T15:09:44.073Z,102783.00
2022-10-06T15:12:12.102Z,102785.16
2022-10-06T15:14:40.237Z,102777.22
2022-10-06T15:17:08.327Z,102771.31
2022-10-06T15:19:38.021Z,102771.31
2022-10-06T15:22:07.336Z,102774.88
2022-10-06T15:24:35.513Z,102776.59
2022-10-06T15:27:24.718Z,102772.22
2022-10-06T15:29:57.448Z,102767.78
2022-10-06T15:32:37.045Z,102766.38
2022-10-06T15:35:22.615Z,102762.78
2022-10-06T15:37:50.916Z,102758.25
2022-10-06T15:40:22.387Z,102755.66
2022-10-06T15:42:51.222Z,102754.16
2022-10-06T15:45:19.425Z,102755.34
2022-10-06T15:47:48.932Z,102742.81
2022-10-06T15:50:19.142Z,102751.41
2022-10-06T15:52:58.768Z,102755.63
2022-10-06T15:55:26.877Z,102735.34
2022-10-06T15:57:55.199Z,102748.78
2022-10-06T16:00:23.239Z,102736.28
2022-10-06T16:02:52.767Z,102747.66
2022-10-06T16:05:46.182Z,102736.16
2022-10-06T16:08:14.343Z,102734.34
2022-10-06T16:10:42.552Z,102731.84
2022-10-06T16:13:10.651Z,102732.50
2022-10-06T16:15:38.703Z,102737.09
2022-10-06T16:18:07.024Z,102734.06
2022-10-06T16:20:36.487Z,102743.16
2022-10-06T16:23:04.525Z,102731.88
2022-10-06T16:25:32.618Z,102734.91
2022-10-06T16:28:01.011Z,102696.50
2022-10-06T16:30:31.168Z,102711.34
2022-10-06T16:33:01.528Z,102705.59
2022-10-06T16:35:30.136Z,102728.03
2022-10-06T16:38:03.432Z,102721.44
2022-10-06T16:40:31.655Z,102711.94
2022-10-06T16:43:04.835Z,102719.88
2022-10-06T16:45:48.658Z,102717.38
2022-10-06T16:48:18.184Z,102709.00
2022-10-06T16:51:00.246Z,102718.88
2022-10-06T16:53:37.668Z,102693.22
2022-10-06T16:56:06.102Z,102700.00
2022-10-06T16:58:41.991Z,102689.63
2022-10-06T17:01:10.339Z,102714.28
2022-10-06T17:03:38.839Z,102709.78
2022-10-06T17:06:08.999Z,102706.09
2022-10-06T17:08:39.681Z,102714.84
2022-10-06T17:11:16.883Z,102708.69
2022-10-06T17:13:47.410Z,102707.44
2022-10-06T17:16:18.572Z,102707.34
2022-10-06T17:18:52.864Z,102710.97
2022-10-06T17:21:44.098Z,102713.34
2022-10-06T17:24:13.303Z,102699.44
2022-10-06T17:26:42.457Z,102697.69
2022-10-06T17:29:13.846Z,102695.75
2022-10-06T17:31:43.342Z,102693.78
2022-10-06T17:34:12.547Z,102707.84
2022-10-06T17:36:41.302Z,102707.13
2022-10-06T17:39:13.953Z,102702.50
2022-10-06T17:41:42.711Z,102713.13
2022-10-06T17:44:13.490Z,102708.91
2022-10-06T17:46:42.750Z,102717.13
2022-10-06T17:49:21.005Z,102715.13
2022-10-06T17:52:01.581Z,102714.28
2022-10-06T17:54:53.006Z,102716.72
2022-10-06T17:57:21.173Z,102713.47
2022-10-06T17:59:49.206Z,102708.00
2022-10-06T18:02:17.289Z,102704.78
2022-10-06T18:04:47.491Z,102715.97
2022-10-06T18:07:19.340Z,102713.72
2022-10-06T18:10:09.923Z,102713.59
2022-10-06T18:12:50.801Z,102712.72
2022-10-06T18:15:22.099Z,102704.25
2022-10-06T18:17:53.403Z,102717.25
2022-10-06T18:20:23.477Z,102696.41
2022-10-06T18:22:51.588Z,102704.56
2022-10-06T18:25:26.908Z,102716.91
2022-10-06T18:27:55.290Z,102707.75
2022-10-06T18:30:34.243Z,102720.06
2022-10-06T18:37:25.810Z,102725.00
2022-10-06T18:48:05.051Z,102710.63
2022-10-06T18:51:14.307Z,102717.41
2022-10-06T18:53:56.047Z,102705.81
2022-10-06T18:56:33.632Z,102687.75
2022-10-06T19:03:34.616Z,102712.56
2022-10-06T19:06:02.718Z,102701.00
2022-10-06T19:08:30.906Z,102700.72
2022-10-06T19:11:29.910Z,102715.13
2022-10-06T19:14:12.805Z,102684.63
2022-10-06T19:16:41.147Z,102700.84
2022-10-06T19:19:11.922Z,102703.97
2022-10-06T19:21:50.246Z,102712.03
2022-10-06T19:24:24.428Z,102695.09
2022-10-06T19:26:57.531Z,102697.91
2022-10-06T19:29:50.704Z,102706.94
2022-10-06T19:32:25.705Z,102699.88
2022-10-06T19:34:59.035Z,102696.88
2022-10-06T19:37:28.429Z,102701.97
2022-10-06T19:39:56.447Z,102695.09
2022-10-06T19:45:47.877Z,102697.34
2022-10-06T19:48:20.373Z,102682.41
2022-10-06T19:50:52.214Z,102686.59
2022-10-06T19:53:27.702Z,102687.75
2022-10-06T19:56:02.126Z,102689.16
2022-10-06T19:58:34.016Z,102683.66
2022-10-06T20:01:07.627Z,102688.88
2022-10-06T20:03:41.538Z,102690.00
2022-10-06T20:06:12.444Z,102695.09
2022-10-06T20:08:46.898Z,102687.19
2022-10-06T20:11:29.457Z,102695.22
2022-10-06T20:13:57.552Z,102670.28
2022-10-06T20:16:25.801Z,102684.94
2022-10-06T20:18:57.402Z,102685.47
2022-10-06T20:21:31.238Z,102682.66
2022-10-06T20:24:01.411Z,102688.03
2022-10-06T20:26:35.268Z,102668.25
2022-10-06T20:29:05.086Z,102672.19
2022-10-06T20:31:44.883Z,102670.22
2022-10-06T20:34:23.526Z,102678.81
2022-10-06T20:36:55.944Z,102669.38
2022-10-06T20:39:43.385Z,102668.53
2022-10-06T20:42:15.140Z,102663.44
2022-10-06T20:44:46.511Z,102653.88
2022-10-06T20:47:16.482Z,102638.91
2022-10-06T20:49:44.702Z,102666.56
2022-10-06T20:53:02.918Z,102661.47
2022-10-06T20:55:38.180Z,102667.72
2022-10-06T21:01:22.076Z,102662.69
2022-10-06T21:03:51.360Z,102663.81
2022-10-06T21:06:20.717Z,102667.75
2022-10-06T21:09:19.055Z,102669.44
2022-10-06T21:11:47.611Z,102633.31
2022-10-06T21:14:18.940Z,102655.50
2022-10-06T21:16:49.884Z,102665.38
2022-10-06T21:19:19.852Z,102628.84
2022-10-06T21:21:52.390Z,102656.19
2022-10-06T21:25:23.857Z,102650.53
2022-10-06T21:27:56.631Z,102619.47
2022-10-06T21:30:25.879Z,102645.88
2022-10-06T21:32:53.917Z,102607.94
2022-10-06T21:35:22.181Z,102645.31
2022-10-06T21:37:54.130Z,102637.69
2022-10-06T21:40:53.289Z,102645.16
2022-10-06T21:43:28.982Z,102634.69
2022-10-06T21:46:23.938Z,102626.84
2022-10-06T21:48:53.422Z,102620.28
2022-10-06T21:51:23.094Z,102617.63
2022-10-06T21:53:59.060Z,102620.88
2022-10-06T21:56:27.813Z,102613.81
2022-10-06T21:59:00.962Z,102599.69
2022-10-06T22:01:29.901Z,102613.22
2022-10-06T22:04:21.894Z,102617.50
2022-10-06T22:06:53.520Z,102604.53
2022-10-06T22:09:23.223Z,102597.91
2022-10-06T22:11:51.459Z,102599.56
2022-10-06T22:14:22.423Z,102579.00
2022-10-06T22:16:50.611Z,102600.59
2022-10-06T22:19:21.744Z,102571.38
2022-10-06T22:21:50.011Z,102590.97
2022-10-06T22:24:21.751Z,102583.59
2022-10-06T22:26:50.046Z,102596.44
2022-10-06T22:29:28.666Z,102590.94
2022-10-06T22:32:03.493Z,102588.69
2022-10-06T22:34:39.042Z,102585.16
2022-10-06T22:37:16.015Z,102582.47
2022-10-06T22:39:44.306Z,102572.00
2022-10-06T22:42:12.443Z,102542.25
2022-10-06T22:44:43.287Z,102571.16
2022-10-06T22:47:12.020Z,102549.03
2022-10-06T22:49:40.039Z,102559.88
2022-10-06T22:52:09.691Z,102554.81
2022-10-06T22:54:38.271Z,102555.94
2022-10-06T22:57:07.114Z,102552.00
2022-10-06T22:59:35.222Z,102533.69
2022-10-06T23:02:32.907Z,102554.41
2022-10-06T23:05:03.400Z,102519.75
2022-10-06T23:07:34.916Z,102539.59
2022-10-06T23:10:02.938Z,102542.97
2022-10-06T23:12:32.186Z,102545.78
2022-10-06T23:15:02.116Z,102535.91
2022-10-06T23:17:31.562Z,102533.63
2022-10-06T23:20:01.213Z,102530.81
2022-10-06T23:22:31.990Z,102539.84
2022-10-06T23:25:00.041Z,102511.88
2022-10-06T23:27:28.118Z,102496.41
2022-10-06T23:29:56.176Z,102522.34
2022-10-06T23:32:25.057Z,102529.28
2022-10-06T23:34:54.201Z,102520.13
2022-10-06T23:37:25.471Z,102509.97
2022-10-06T23:39:58.730Z,102491.09
2022-10-06T23:42:29.210Z,102512.75
2022-10-06T23:44:57.280Z,102505.41
2022-10-06T23:47:25.365Z,102489.53
2022-10-06T23:49:54.285Z,102508.25
2022-10-06T23:52:22.321Z,102489.91
2022-10-06T23:54:50.269Z,102495.28
2022-10-06T23:57:19.644Z,102474.44
2022-10-06T23:59:47.592Z,102458.09
